Accueil
METAR-TAF:

METAR-TAF

Aéroports :

Aéroport de Lydd

Lydd, Angleterre

latitude: 50-57N, longitude: 000-56E, altitude: 3 m

Observation

Le bulletin a été fait il y a 29 minutes, à 15:20 UTC
Vent 24 kt de ouest
Température 17°C
Humidité 55%
Pression 1012 hPa
Visibilité 10 km ou plus
Nuages épars à une hauteur de 4300 ft

METAR: EGMD 211520Z 26024KT 9999 SCT043 17/08 Q1012

Heure: 16:49 (15:49 UTC)

Prévision

Le bulletin a été fait il y a 1 heure et 53 minutes, à 13:56 UTC
Prévision valable du 21 à 15 UTC au 21 à 24 UTC
Vent 17 kt de ouest
Visibilité 10 km ou plus
Nuages épars à une hauteur de 3500 ft
Temporairement
du 21 à 15 UTC au 21 à 18 UTC
Vent 20 kt de ouest avec des rafales jusqu'à 35 kt

TAF: EGMD 211356Z 2115/2124 26017KT 9999 SCT035 TEMPO 2115/2118 27020G35KT

Observations et prévisions météorologiques de plus de 4000 aéroports (messages METAR et TAF).

Les stations disponibles sont représentées par des disques jaunes et rouges sur la carte.

Passer la souris dessus pour voir le nom de la station.

Cliquer dessus pour voir les observations et prévisions météorologiques.

Pour changer de carte: cliquez sur les boutons verts avec une croix noire pour zoomer, sur le bouton vert avec un tiret pour effectuer un zoom arrière, ou sur les flèches vertes pour les cartes adjacentes.


METAR-TAF: